Time;durP1;ratioP1;P1;durP2;ratioP2;P2;SDS_P1;SDS_P2;PMS_P1;PMS_P2;Temp;Humidity;BMP_temperature;BMP_pressure;BME280_temperature;BME280_humidity;BME280_pressure;Samples;Min_cycle;Max_cycle;Signal;HPM_P1;HPM_P2
2021/10/24 00:00:08;;;;;;;9.27;7.05;;;;;;;8.44;73.12;101415.97;10194939;28;20247;-59
2021/10/24 00:05:09;;;;;;;7.43;6.72;;;;;;;8.41;73.71;101410.78;10192567;28;20484;-59
2021/10/24 00:10:10;;;;;;;8.65;7.05;;;;;;;8.42;73.37;101412.50;10183162;28;20052;-58
2021/10/24 00:15:12;;;;;;;10.25;7.28;;;;;;;8.36;74.30;101407.53;10185021;28;20619;-59
2021/10/24 00:20:13;;;;;;;9.93;7.82;;;;;;;8.34;73.72;101404.06;10183367;28;20107;-58
2021/10/24 00:25:15;;;;;;;10.10;7.15;;;;;;;8.39;73.63;101411.78;10185936;28;20189;-59
2021/10/24 00:30:16;;;;;;;7.85;7.05;;;;;;;8.37;73.65;101403.06;10189306;28;20074;-59
2021/10/24 00:35:18;;;;;;;12.48;8.43;;;;;;;8.33;74.15;101397.03;10186640;28;20047;-58
2021/10/24 00:40:19;;;;;;;9.95;7.93;;;;;;;8.33;74.48;101407.66;10187321;28;20159;-60
2021/10/24 00:45:24;;;;;;;10.00;8.18;;;;;;;8.24;73.60;101395.75;10203579;28;20138;-59
2021/10/24 00:50:26;;;;;;;11.43;8.35;;;;;;;8.13;74.98;101393.66;10184000;28;20536;-58
2021/10/24 00:55:28;;;;;;;10.98;8.50;;;;;;;8.22;74.59;101399.44;10180335;28;20135;-59
2021/10/24 01:00:29;;;;;;;8.77;7.97;;;;;;;8.18;74.17;101397.84;10182990;28;20047;-58
2021/10/24 01:05:31;;;;;;;8.25;7.07;;;;;;;8.05;74.42;101387.91;10183812;28;20066;-58
2021/10/24 01:10:34;;;;;;;11.48;7.70;;;;;;;8.05;74.26;101392.34;10184154;28;20095;-59
2021/10/24 01:15:35;;;;;;;8.68;7.85;;;;;;;7.98;74.59;101383.84;10187686;28;20761;-59
2021/10/24 01:20:37;;;;;;;8.57;7.22;;;;;;;7.97;74.00;101387.41;10186782;28;20674;-59
2021/10/24 01:25:39;;;;;;;7.97;7.10;;;;;;;8.00;73.49;101389.94;10201719;28;20076;-59
2021/10/24 01:30:40;;;;;;;8.02;6.80;;;;;;;7.94;73.36;101395.53;10184971;28;20094;-59
2021/10/24 01:35:54;;;;;;;8.48;6.68;;;;;;;7.91;74.05;101390.38;10183878;28;20079;-59
2021/10/24 01:40:57;;;;;;;11.53;7.03;;;;;;;7.85;75.12;101385.41;10187866;28;20048;-59
2021/10/24 01:45:59;;;;;;;9.30;7.50;;;;;;;7.84;74.17;101373.94;10191959;28;20378;-59
2021/10/24 01:51:02;;;;;;;8.02;6.50;;;;;;;7.85;73.15;101369.50;10187222;28;20048;-59
2021/10/24 01:56:04;;;;;;;8.00;6.60;;;;;;;7.84;73.60;101355.41;10187907;28;20454;-59
2021/10/24 02:01:07;;;;;;;8.45;6.90;;;;;;;7.77;73.39;101357.50;10184634;28;20070;-59
2021/10/24 02:06:09;;;;;;;6.93;5.90;;;;;;;7.78;73.29;101345.97;10185601;28;20051;-58
2021/10/24 02:11:10;;;;;;;6.65;5.18;;;;;;;7.77;73.33;101340.75;10197000;28;20043;-58
2021/10/24 02:16:12;;;;;;;7.55;6.10;;;;;;;7.75;72.80;101354.06;10196565;28;20123;-58
2021/10/24 02:21:13;;;;;;;7.20;6.40;;;;;;;7.68;72.86;101342.06;10190349;28;20130;-59
2021/10/24 02:26:15;;;;;;;7.70;6.50;;;;;;;7.59;73.27;101343.38;10188549;28;20390;-59
2021/10/24 02:31:16;;;;;;;8.93;6.53;;;;;;;7.44;73.71;101329.09;10190950;28;20048;-59
2021/10/24 02:36:18;;;;;;;8.98;6.47;;;;;;;7.46;73.25;101336.13;10185711;28;20106;-59
2021/10/24 02:41:19;;;;;;;7.75;6.40;;;;;;;7.50;73.42;101338.56;10196904;28;20055;-59
2021/10/24 02:46:21;;;;;;;6.50;5.82;;;;;;;7.37;73.22;101327.72;10188282;28;20070;-59
2021/10/24 02:51:22;;;;;;;6.63;5.90;;;;;;;7.29;73.38;101329.03;10188824;28;20135;-58
2021/10/24 02:56:24;;;;;;;9.68;8.00;;;;;;;7.25;73.23;101323.91;10187065;28;20438;-58
2021/10/24 03:01:25;;;;;;;8.70;6.47;;;;;;;7.25;72.98;101323.00;10184592;28;20075;-59
2021/10/24 03:06:27;;;;;;;6.65;6.05;;;;;;;7.16;73.62;101319.06;10191485;28;20385;-58
2021/10/24 03:11:29;;;;;;;7.18;6.07;;;;;;;7.10;73.30;101313.19;10197057;28;20043;-59
2021/10/24 03:16:31;;;;;;;6.78;5.95;;;;;;;7.10;73.43;101310.53;10195920;28;20592;-59
2021/10/24 03:21:33;;;;;;;7.00;6.15;;;;;;;7.06;72.83;101312.50;10193943;28;20055;-58
2021/10/24 03:26:34;;;;;;;7.22;6.28;;;;;;;7.03;73.19;101308.19;10195366;28;20075;-60
2021/10/24 03:31:36;;;;;;;6.90;6.00;;;;;;;7.05;73.06;101308.13;10195689;28;20118;-59
2021/10/24 03:36:37;;;;;;;6.57;5.93;;;;;;;6.98;73.96;101319.94;10191741;28;20055;-59
2021/10/24 03:41:39;;;;;;;6.47;5.10;;;;;;;7.00;73.62;101318.94;10190885;28;20047;-60
2021/10/24 03:51:52;;;;;;;7.90;6.10;;;;;;;6.88;73.52;101314.25;10134576;29;20056;-62
2021/10/24 03:56:54;;;;;;;8.27;6.20;;;;;;;6.87;74.11;101320.47;10164463;29;20162;-63
2021/10/24 04:01:55;;;;;;;6.72;5.20;;;;;;;6.90;73.54;101320.31;10163870;29;20493;-65
2021/10/24 04:06:57;;;;;;;6.55;5.38;;;;;;;7.01;73.00;101315.38;10193638;28;20051;-63
2021/10/24 04:11:59;;;;;;;6.03;5.15;;;;;;;7.00;73.03;101318.09;10189874;29;20103;-63
2021/10/24 04:17:00;;;;;;;5.80;5.00;;;;;;;6.89;72.69;101313.28;10186271;29;20142;-62
2021/10/24 04:22:02;;;;;;;8.65;5.70;;;;;;;6.84;73.20;101318.81;10184086;28;20568;-64
2021/10/24 04:27:03;;;;;;;7.10;5.78;;;;;;;6.80;73.36;101313.72;10186577;29;20477;-64
2021/10/24 04:32:05;;;;;;;7.38;6.63;;;;;;;6.84;72.91;101307.38;10190267;29;20052;-62
2021/10/24 04:37:06;;;;;;;7.07;5.40;;;;;;;6.87;72.43;101307.22;10195640;29;20059;-63
2021/10/24 04:42:08;;;;;;;6.00;5.35;;;;;;;6.77;72.54;101298.00;10194996;29;20055;-64
2021/10/24 04:47:10;;;;;;;6.53;5.93;;;;;;;6.77;72.05;101300.66;10185642;29;20904;-63
2021/10/24 04:52:11;;;;;;;6.75;5.18;;;;;;;6.75;72.46;101291.94;10180305;29;20087;-65
2021/10/24 04:57:12;;;;;;;5.63;5.13;;;;;;;6.71;72.14;101286.78;10179994;29;20071;-64
2021/10/24 05:02:14;;;;;;;8.80;5.68;;;;;;;6.70;72.62;101285.06;10189118;29;20138;-65
2021/10/24 05:07:15;;;;;;;5.82;5.20;;;;;;;6.62;72.45;101281.94;10204522;28;20088;-64
2021/10/24 05:12:17;;;;;;;5.70;4.95;;;;;;;6.70;71.96;101285.06;10190101;29;20055;-62
2021/10/24 05:17:18;;;;;;;6.18;5.25;;;;;;;6.65;71.94;101291.50;10191501;29;20129;-64
2021/10/24 05:22:20;;;;;;;8.13;5.63;;;;;;;6.52;72.79;101291.25;10191554;29;20098;-64
2021/10/24 05:27:22;;;;;;;8.00;5.55;;;;;;;6.41;72.87;101288.22;10187444;29;20076;-64
2021/10/24 05:32:23;;;;;;;6.10;4.72;;;;;;;6.42;72.79;101279.38;10181525;28;20472;-65
2021/10/24 05:37:25;;;;;;;6.57;5.45;;;;;;;6.35;72.76;101279.66;10172839;29;20158;-62
2021/10/24 05:42:26;;;;;;;6.43;5.68;;;;;;;6.29;72.72;101285.25;10187443;29;20105;-63
2021/10/24 05:47:28;;;;;;;6.90;5.68;;;;;;;6.24;72.13;101281.94;10167741;29;20043;-62
2021/10/24 05:52:30;;;;;;;5.82;5.22;;;;;;;6.19;72.62;101273.38;10185173;29;20059;-65
2021/10/24 05:57:31;;;;;;;6.38;5.28;;;;;;;6.20;72.44;101275.09;10189942;29;20103;-64
2021/10/24 06:02:33;;;;;;;5.32;4.75;;;;;;;6.16;72.83;101274.34;10186441;29;20079;-63
2021/10/24 06:07:35;;;;;;;7.18;6.20;;;;;;;6.19;72.54;101271.56;10189400;29;20397;-65
2021/10/24 06:17:39;;;;;;;6.13;5.53;;;;;;;6.09;72.66;101277.34;10186685;29;20056;-63
2021/10/24 06:22:41;;;;;;;7.82;5.82;;;;;;;6.06;73.36;101277.50;10188505;28;20063;-65
2021/10/24 06:27:43;;;;;;;6.53;5.22;;;;;;;6.14;72.38;101280.63;10193161;28;20059;-62
2021/10/24 06:32:45;;;;;;;6.97;6.25;;;;;;;6.09;72.05;101283.50;10197265;29;20158;-62
2021/10/24 06:37:48;;;;;;;6.95;6.13;;;;;;;6.02;71.80;101284.72;10196378;29;20118;-61
2021/10/24 06:42:49;;;;;;;6.65;5.20;;;;;;;5.99;72.14;101296.28;10189690;29;20115;-61
2021/10/24 06:47:51;;;;;;;6.68;5.93;;;;;;;6.11;73.03;101292.22;10194839;29;20134;-62
2021/10/24 06:52:52;;;;;;;8.45;5.75;;;;;;;6.25;72.18;101294.22;10191474;29;20056;-62
2021/10/24 06:57:56;;;;;;;6.50;5.22;;;;;;;6.44;71.83;101293.38;10195434;29;20066;-63
2021/10/24 07:02:57;;;;;;;7.03;5.97;;;;;;;6.55;72.28;101302.53;10191560;28;20123;-65
2021/10/24 07:07:59;;;;;;;7.57;6.10;;;;;;;6.67;72.00;101300.25;10192627;29;20056;-62
2021/10/24 07:13:01;;;;;;;6.70;6.07;;;;;;;6.89;71.57;101313.28;10176282;29;20134;-65
2021/10/24 07:18:02;;;;;;;8.23;6.60;;;;;;;7.04;70.46;101307.28;10172414;29;20059;-62
2021/10/24 07:23:04;;;;;;;9.02;6.78;;;;;;;7.23;69.80;101303.72;10156257;29;20059;-62
2021/10/24 07:28:06;;;;;;;6.45;5.80;;;;;;;7.38;68.39;101300.28;10179587;29;20106;-66
2021/10/24 07:33:07;;;;;;;7.95;6.22;;;;;;;7.47;67.75;101287.53;10182263;29;20044;-62
2021/10/24 07:38:14;;;;;;;7.18;6.47;;;;;;;7.59;69.44;101300.97;10185496;29;20123;-63
2021/10/24 07:43:18;;;;;;;7.30;5.63;;;;;;;7.75;67.48;101306.34;10187619;29;20601;-62
2021/10/24 07:48:20;;;;;;;6.80;6.22;;;;;;;7.89;66.48;101318.03;10193107;28;20047;-63
2021/10/24 07:53:25;;;;;;;8.57;6.75;;;;;;;8.16;67.02;101306.91;10199478;28;20088;-64
2021/10/24 07:58:27;;;;;;;6.85;5.70;;;;;;;8.21;66.55;101304.88;10191505;29;20062;-64
2021/10/24 08:03:29;;;;;;;7.90;6.47;;;;;;;8.30;64.77;101313.19;10191811;29;20103;-63
2021/10/24 08:08:30;;;;;;;8.68;6.85;;;;;;;8.38;65.14;101310.13;10189897;29;20559;-63
2021/10/24 08:13:32;;;;;;;7.05;6.35;;;;;;;8.40;65.66;101302.06;10177179;29;20784;-64
2021/10/24 08:18:34;;;;;;;7.60;5.72;;;;;;;8.47;65.36;101299.03;10178373;29;20051;-64
2021/10/24 08:23:35;;;;;;;9.05;6.22;;;;;;;8.52;65.06;101295.28;10176819;28;20198;-64
2021/10/24 08:28:38;;;;;;;7.70;5.15;;;;;;;8.67;64.56;101294.41;10175004;29;20058;-64
2021/10/24 08:33:44;;;;;;;6.53;5.50;;;;;;;9.00;64.00;101288.97;10181307;29;20118;-64
2021/10/24 08:38:45;;;;;;;6.85;6.20;;;;;;;9.18;63.74;101295.03;10171769;28;20071;-65
2021/10/24 08:43:49;;;;;;;7.13;6.30;;;;;;;9.61;62.52;101291.66;10169898;29;20143;-65
2021/10/24 08:48:51;;;;;;;6.37;5.10;;;;;;;10.08;62.00;101287.06;10168501;29;20050;-64
2021/10/24 08:53:53;;;;;;;7.03;5.88;;;;;;;10.58;59.65;101288.38;10156618;29;20051;-64
2021/10/24 08:58:54;;;;;;;7.15;5.45;;;;;;;11.15;57.64;101286.47;10172094;29;20512;-63
2021/10/24 09:04:13;;;;;;;7.78;5.07;;;;;;;11.63;55.93;101277.91;10170472;29;20221;-64
2021/10/24 09:09:24;;;;;;;6.38;4.63;;;;;;;12.01;54.21;101274.44;10164139;29;20126;-64
2021/10/24 09:14:53;;;;;;;6.60;5.40;;;;;;;12.35;52.76;101266.69;10148237;29;20146;-64
2021/10/24 09:20:03;;;;;;;7.10;6.05;;;;;;;12.90;51.34;101269.84;10156967;28;20151;-64
2021/10/24 09:25:14;;;;;;;5.43;4.50;;;;;;;13.44;49.50;101255.13;10171496;28;21050;-64
2021/10/24 09:30:23;;;;;;;5.85;5.25;;;;;;;14.05;48.11;101248.63;10163517;29;20146;-65
2021/10/24 09:35:27;;;;;;;6.63;4.70;;;;;;;14.96;45.48;101252.00;10163740;29;20470;-64
2021/10/24 09:40:32;;;;;;;5.70;4.10;;;;;;;16.37;42.09;101241.69;10165568;29;20207;-64
2021/10/24 09:45:33;;;;;;;5.68;4.38;;;;;;;19.75;35.24;101228.09;10163557;29;20158;-65
2021/10/24 09:50:39;;;;;;;6.00;4.55;;;;;;;21.52;31.32;101220.94;10172809;29;20059;-65
2021/10/24 09:56:01;;;;;;;5.50;3.92;;;;;;;22.02;31.01;101213.50;10170212;29;20151;-65
2021/10/24 10:01:05;;;;;;;5.50;3.67;;;;;;;20.77;32.29;101217.34;10170286;28;20064;-64
2021/10/24 10:06:07;;;;;;;4.05;3.50;;;;;;;19.95;32.59;101204.44;10175859;29;20048;-65
2021/10/24 10:11:21;;;;;;;5.22;3.60;;;;;;;19.99;33.88;101199.53;10176614;28;20151;-63
2021/10/24 10:16:39;;;;;;;4.15;3.75;;;;;;;21.28;31.51;101192.00;10176827;29;20055;-65
2021/10/24 10:21:43;;;;;;;5.68;3.60;;;;;;;24.94;26.88;101184.81;10179824;28;20058;-63
2021/10/24 10:26:45;;;;;;;4.47;3.65;;;;;;;27.40;23.38;101175.09;10168214;29;20129;-63
2021/10/24 10:32:16;;;;;;;4.55;3.60;;;;;;;29.06;21.19;101169.88;10166553;28;20135;-64
2021/10/24 10:37:52;;;;;;;4.82;3.33;;;;;;;29.92;19.87;101152.75;10158172;29;20501;-64
2021/10/24 10:43:04;;;;;;;4.88;3.08;;;;;;;31.45;19.81;101148.72;10176692;28;20123;-66
2021/10/24 10:48:07;;;;;;;;;;;;;;;31.70;18.23;101142.97;10179475;29;20060;-67
2021/10/24 10:53:15;;;;;;;2.80;2.53;;;;;;;32.56;17.03;101128.34;10181063;29;20621;-64
2021/10/24 10:58:27;;;;;;;4.50;3.28;;;;;;;32.84;16.41;101132.16;10176225;29;20558;-63
2021/10/24 11:03:49;;;;;;;3.95;2.92;;;;;;;33.54;16.04;101121.59;10151081;29;20143;-67
2021/10/24 11:09:01;;;;;;;4.68;2.58;;;;;;;34.22;16.75;101115.78;10173184;29;20059;-66
2021/10/24 11:14:22;;;;;;;3.85;2.40;;;;;;;34.31;14.57;101108.69;10176874;28;20332;-65
2021/10/24 11:19:27;;;;;;;6.50;3.03;;;;;;;35.33;14.46;101103.13;10170770;29;20072;-66
2021/10/24 11:24:43;;;;;;;3.05;2.50;;;;;;;36.37;13.83;101098.72;10171061;29;20598;-66
2021/10/24 11:29:52;;;;;;;2.72;2.28;;;;;;;35.70;13.71;101087.47;10169371;29;20556;-65
2021/10/24 11:34:54;;;;;;;3.83;3.28;;;;;;;36.32;13.43;101071.00;10170821;29;20079;-67
2021/10/24 11:39:56;;;;;;;2.80;2.55;;;;;;;36.69;13.19;101075.41;10168579;29;21136;-66
2021/10/24 11:44:57;;;;;;;4.60;2.67;;;;;;;36.72;12.69;101066.53;10176501;29;20291;-66
2021/10/24 11:49:59;;;;;;;3.15;2.58;;;;;;;37.45;12.88;101056.94;10174286;29;20061;-70
2021/10/24 11:55:11;;;;;;;2.83;2.40;;;;;;;37.85;12.29;101043.97;10163907;29;20164;-66
2021/10/24 12:00:27;;;;;;;3.25;2.30;;;;;;;38.50;12.07;101048.47;10162271;28;20473;-66
2021/10/24 12:05:30;;;;;;;3.88;1.98;;;;;;;38.75;11.33;101036.28;10174345;29;20444;-67
2021/10/24 12:10:38;;;;;;;1.88;1.48;;;;;;;38.93;11.33;101029.13;10176397;29;20146;-68
2021/10/24 12:15:40;;;;;;;3.83;2.15;;;;;;;39.17;10.75;101022.72;10173598;29;20496;-66
2021/10/24 12:20:58;;;;;;;2.50;1.55;;;;;;;39.06;10.82;101014.47;10174787;28;20504;-66
2021/10/24 12:26:04;;;;;;;2.92;1.90;;;;;;;39.34;11.01;101002.75;10172867;28;22148;-67
2021/10/24 12:31:13;;;;;;;2.67;1.77;;;;;;;39.72;10.79;100986.88;10169899;28;20072;-66
2021/10/24 12:36:31;;;;;;;3.78;1.55;;;;;;;40.47;10.07;100995.41;10168976;28;20536;-74
2021/10/24 12:41:37;;;;;;;3.05;1.60;;;;;;;40.07;10.34;100984.66;10168041;29;20118;-67
2021/10/24 12:46:39;;;;;;;3.00;1.70;;;;;;;39.90;10.38;100973.22;10172058;28;20786;-68
2021/10/24 12:51:42;;;;;;;2.03;1.38;;;;;;;40.33;10.17;100969.41;10172782;29;20501;-67
2021/10/24 12:56:44;;;;;;;2.28;1.27;;;;;;;40.24;10.42;100958.16;10174961;28;20059;-71
2021/10/24 13:01:48;;;;;;;1.95;1.30;;;;;;;40.19;10.24;100945.16;10170034;28;20079;-67
2021/10/24 13:06:49;;;;;;;2.40;1.60;;;;;;;40.04;10.44;100935.13;10170818;29;20046;-68
2021/10/24 13:11:52;;;;;;;2.22;1.40;;;;;;;40.00;10.26;100928.50;10156537;28;20165;-65
2021/10/24 13:16:53;;;;;;;1.65;1.15;;;;;;;39.97;9.95;100926.28;10156387;28;20084;-67
2021/10/24 13:26:56;;;;;;;1.77;1.20;;;;;;;39.82;10.32;100915.41;10125834;29;20055;-66
2021/10/24 13:31:58;;;;;;;2.08;0.98;;;;;;;38.65;11.15;100911.22;10148574;28;20135;-68
2021/10/24 13:36:59;;;;;;;1.85;1.30;;;;;;;38.89;11.08;100906.44;10158362;28;20138;-68
2021/10/24 13:42:02;;;;;;;2.38;1.50;;;;;;;38.98;10.92;100909.41;10155902;29;20056;-68
2021/10/24 13:47:03;;;;;;;2.80;1.50;;;;;;;38.75;10.76;100910.25;10160650;29;21272;-67
2021/10/24 13:52:05;;;;;;;2.33;2.03;;;;;;;38.24;11.24;100895.81;10161052;29;20074;-68
2021/10/24 13:57:07;;;;;;;2.53;2.33;;;;;;;38.58;10.53;100889.28;10172042;29;20111;-67
2021/10/24 14:02:08;;;;;;;2.58;1.77;;;;;;;38.09;11.28;100890.38;10178616;28;20143;-68
2021/10/24 14:07:10;;;;;;;2.42;1.23;;;;;;;37.27;11.61;100887.16;10178361;28;20043;-66
2021/10/24 14:12:11;;;;;;;2.35;1.20;;;;;;;37.08;11.23;100873.13;10177603;29;20056;-69
2021/10/24 14:17:13;;;;;;;2.55;1.15;;;;;;;36.43;11.74;100868.38;10175635;29;20229;-68
2021/10/24 14:22:15;;;;;;;2.85;1.30;;;;;;;35.66;12.68;100853.81;10171137;28;20194;-67
2021/10/24 14:27:17;;;;;;;2.22;1.30;;;;;;;35.22;12.65;100857.88;10180723;29;20129;-66
2021/10/24 14:32:18;;;;;;;2.97;1.13;;;;;;;34.70;13.05;100856.91;10181210;29;20051;-67
2021/10/24 14:37:19;;;;;;;4.13;1.95;;;;;;;34.69;13.79;100858.00;10170837;29;20044;-66
2021/10/24 14:42:21;;;;;;;3.17;1.70;;;;;;;34.39;13.84;100858.69;10155725;29;20142;-67
2021/10/24 14:47:22;;;;;;;2.78;1.35;;;;;;;32.87;14.50;100851.28;10177214;29;20150;-66
2021/10/24 14:52:24;;;;;;;2.03;1.17;;;;;;;29.48;18.06;100840.22;10177979;29;20138;-66
2021/10/24 14:57:26;;;;;;;6.57;1.98;;;;;;;24.83;22.89;100848.59;10177146;29;20217;-64
2021/10/24 15:02:27;;;;;;;3.55;1.40;;;;;;;22.31;26.36;100845.91;10176207;28;20063;-65
2021/10/24 15:07:29;;;;;;;4.27;2.10;;;;;;;20.77;29.43;100844.00;10176601;29;20280;-65
2021/10/24 15:12:30;;;;;;;2.85;2.17;;;;;;;19.88;31.42;100844.06;10179541;28;21049;-64
2021/10/24 15:17:41;;;;;;;5.05;2.55;;;;;;;19.03;33.47;100833.50;10173393;29;20052;-64
2021/10/24 15:22:43;;;;;;;3.80;2.38;;;;;;;18.43;34.66;100837.13;10168185;29;20124;-63
2021/10/24 15:27:44;;;;;;;2.80;1.70;;;;;;;18.18;35.00;100826.22;10171785;29;20133;-66
2021/10/24 15:32:45;;;;;;;3.63;2.47;;;;;;;17.62;36.34;100828.28;10158041;28;20051;-65
2021/10/24 15:37:47;;;;;;;2.80;1.83;;;;;;;17.25;37.61;100823.91;10159265;29;20941;-64
2021/10/24 15:42:48;;;;;;;4.28;2.00;;;;;;;16.97;38.21;100815.91;10162304;29;20063;-64
2021/10/24 15:47:50;;;;;;;2.45;1.83;;;;;;;16.94;38.73;100826.97;10174787;29;20065;-64
2021/10/24 15:52:51;;;;;;;3.78;1.90;;;;;;;16.87;39.39;100820.50;10190149;28;20115;-64
2021/10/24 15:57:53;;;;;;;3.35;2.20;;;;;;;16.50;41.38;100816.84;10159573;29;20130;-63
2021/10/24 16:02:54;;;;;;;3.58;2.08;;;;;;;16.35;41.54;100819.19;10170466;29;20190;-63
2021/10/24 16:07:56;;;;;;;3.65;2.22;;;;;;;16.15;42.23;100817.53;10168014;29;20127;-63
2021/10/24 16:12:59;;;;;;;3.50;2.40;;;;;;;15.92;43.30;100817.88;10174860;28;20741;-64
2021/10/24 16:18:01;;;;;;;3.33;2.42;;;;;;;15.83;43.51;100818.75;10168778;29;20065;-64
2021/10/24 16:23:03;;;;;;;4.20;2.30;;;;;;;15.59;43.71;100817.34;10149706;29;20048;-63
2021/10/24 16:28:05;;;;;;;4.80;3.38;;;;;;;15.43;44.97;100825.94;10152671;29;20088;-63
2021/10/24 16:33:06;;;;;;;4.60;3.13;;;;;;;15.32;45.85;100820.75;10171048;29;20133;-65
2021/10/24 16:38:07;;;;;;;5.90;3.00;;;;;;;15.13;47.57;100822.44;10168841;29;20193;-59
2021/10/24 16:43:09;;;;;;;4.80;3.55;;;;;;;15.20;47.34;100820.84;10170016;28;20130;-60
2021/10/24 16:48:10;;;;;;;7.97;3.85;;;;;;;15.09;47.63;100810.28;10165124;29;20087;-59
2021/10/24 16:53:12;;;;;;;6.28;3.88;;;;;;;14.96;48.33;100817.72;10167514;28;20094;-61
2021/10/24 16:58:14;;;;;;;5.53;3.60;;;;;;;14.84;49.50;100820.50;10172190;29;20691;-62
2021/10/24 17:03:15;;;;;;;6.68;4.40;;;;;;;14.81;49.32;100812.75;10169702;29;20051;-60
2021/10/24 17:08:33;;;;;;;4.53;3.85;;;;;;;14.82;49.95;100819.81;10165685;28;20051;-60
2021/10/24 17:13:35;;;;;;;4.72;4.00;;;;;;;14.59;50.49;100820.97;10168414;28;20691;-59
2021/10/24 17:18:37;;;;;;;4.78;3.63;;;;;;;14.35;49.40;100840.06;10169543;29;20059;-64
2021/10/24 17:23:39;;;;;;;5.60;3.42;;;;;;;14.03;50.67;100833.00;10167277;28;20554;-63
2021/10/24 17:28:40;;;;;;;5.18;4.10;;;;;;;13.86;51.88;100826.41;10166798;28;20126;-63
2021/10/24 17:33:41;;;;;;;5.35;4.72;;;;;;;13.76;52.61;100831.69;10172155;28;20044;-63
2021/10/24 17:38:43;;;;;;;6.05;4.95;;;;;;;13.61;52.79;100820.44;10174252;28;20051;-64
2021/10/24 17:43:44;;;;;;;6.00;4.70;;;;;;;13.49;53.79;100816.97;10176469;28;20516;-65
2021/10/24 17:48:57;;;;;;;7.20;5.35;;;;;;;13.40;54.72;100828.44;10174451;28;20048;-65
2021/10/24 17:53:59;;;;;;;6.75;5.18;;;;;;;13.33;54.54;100828.09;10173048;29;20416;-65
2021/10/24 17:59:00;;;;;;;7.32;5.03;;;;;;;13.22;55.20;100830.78;10176397;28;20051;-66
2021/10/24 18:04:02;;;;;;;5.55;4.93;;;;;;;13.16;55.47;100829.47;10172622;28;20107;-64
2021/10/24 18:09:04;;;;;;;6.40;4.97;;;;;;;13.19;55.27;100833.72;10165724;28;20054;-63
2021/10/24 18:14:10;;;;;;;6.63;5.20;;;;;;;13.12;56.05;100822.69;10160009;28;20055;-64
2021/10/24 18:19:12;;;;;;;5.95;5.35;;;;;;;13.04;55.90;100820.63;10163205;28;20150;-64
2021/10/24 18:24:14;;;;;;;9.85;6.32;;;;;;;12.90;56.97;100823.59;10174134;28;20051;-60
2021/10/24 18:29:15;;;;;;;8.50;5.90;;;;;;;12.72;57.32;100821.44;10170600;29;20134;-64
2021/10/24 18:34:17;;;;;;;7.30;5.78;;;;;;;12.71;57.73;100825.06;10172262;29;20053;-61
2021/10/24 18:39:18;;;;;;;7.88;6.28;;;;;;;12.65;57.71;100822.91;10173841;29;20203;-62
2021/10/24 18:44:19;;;;;;;9.10;6.55;;;;;;;12.61;58.66;100821.47;10167425;29;20062;-63
2021/10/24 18:49:21;;;;;;;9.95;7.38;;;;;;;12.49;58.15;100814.41;10176381;28;20573;-61
2021/10/24 18:54:23;;;;;;;8.73;6.72;;;;;;;12.41;59.05;100812.34;10172985;29;20471;-58
2021/10/24 18:59:24;;;;;;;9.57;8.55;;;;;;;12.27;59.39;100808.13;10168911;29;20067;-60
2021/10/24 19:04:26;;;;;;;9.20;7.05;;;;;;;12.17;59.36;100800.00;10170910;28;20178;-60
2021/10/24 19:09:27;;;;;;;9.20;8.43;;;;;;;12.26;59.41;100800.22;10175559;28;20416;-63
2021/10/24 19:14:29;;;;;;;9.45;7.30;;;;;;;12.11;59.43;100796.94;10174848;28;20047;-62
2021/10/24 19:19:33;;;;;;;9.00;7.35;;;;;;;11.95;60.97;100789.28;10170617;28;20719;-63
2021/10/24 19:24:34;;;;;;;10.48;8.57;;;;;;;11.92;61.20;100785.00;10165835;28;20063;-62
2021/10/24 19:29:36;;;;;;;8.65;7.75;;;;;;;12.01;60.55;100780.81;10148456;29;20134;-62
2021/10/24 19:34:37;;;;;;;8.80;7.90;;;;;;;11.82;60.77;100776.88;10179076;28;21879;-64
2021/10/24 19:39:39;;;;;;;8.77;7.82;;;;;;;11.67;60.84;100773.56;10170596;29;21368;-64
2021/10/24 19:44:40;;;;;;;9.00;7.20;;;;;;;11.53;61.09;100771.13;10173000;28;21564;-63
2021/10/24 19:49:42;;;;;;;7.22;6.63;;;;;;;11.49;61.12;100766.97;10171183;29;20469;-63
2021/10/24 19:54:44;;;;;;;6.93;5.85;;;;;;;11.44;61.35;100763.81;10177311;28;20479;-64
2021/10/24 19:59:45;;;;;;;6.60;5.93;;;;;;;11.40;60.77;100760.53;10176272;29;20048;-63
2021/10/24 20:04:47;;;;;;;5.43;4.93;;;;;;;11.35;61.10;100759.16;10176115;29;20051;-64
2021/10/24 20:09:48;;;;;;;7.63;5.85;;;;;;;11.35;61.02;100760.03;10171074;28;20102;-65
2021/10/24 20:14:50;;;;;;;7.35;6.55;;;;;;;11.18;61.26;100753.28;10172723;29;20102;-62
2021/10/24 20:19:51;;;;;;;8.73;6.45;;;;;;;11.16;61.44;100760.56;10170696;28;20055;-65
2021/10/24 20:24:58;;;;;;;6.63;5.53;;;;;;;11.14;61.71;100763.34;10170660;28;20143;-63
2021/10/24 20:30:03;;;;;;;7.65;6.05;;;;;;;10.96;61.32;100754.91;10168702;29;20047;-63
2021/10/24 20:35:05;;;;;;;7.15;5.82;;;;;;;10.88;61.33;100764.44;10168930;28;20166;-62
2021/10/24 20:40:10;;;;;;;7.57;6.55;;;;;;;10.85;61.67;100770.81;10163690;29;20074;-63
2021/10/24 20:45:12;;;;;;;6.95;6.10;;;;;;;10.83;61.92;100774.59;10165893;29;20066;-63
2021/10/24 20:50:13;;;;;;;9.77;6.85;;;;;;;10.73;61.63;100769.06;10170608;28;20166;-64
2021/10/24 20:55:14;;;;;;;8.85;7.35;;;;;;;10.64;62.13;100764.41;10171430;29;20421;-63
2021/10/24 21:00:16;;;;;;;8.80;7.15;;;;;;;10.52;62.29;100760.81;10173630;28;20260;-64
2021/10/24 21:05:17;;;;;;;9.20;7.95;;;;;;;10.43;62.97;100754.34;10154465;28;20064;-64
2021/10/24 21:10:19;;;;;;;9.68;8.02;;;;;;;10.35;63.38;100762.03;10162228;29;20063;-64
2021/10/24 21:15:21;;;;;;;9.07;6.95;;;;;;;10.32;64.62;100759.56;10164074;28;20075;-63
2021/10/24 21:20:22;;;;;;;8.90;7.00;;;;;;;10.24;63.21;100752.97;10164033;28;20397;-64
2021/10/24 21:25:24;;;;;;;9.60;7.75;;;;;;;10.16;64.15;100757.97;10170222;29;20047;-63
2021/10/24 21:30:26;;;;;;;7.95;7.20;;;;;;;10.12;64.57;100755.66;10187209;29;20107;-63
2021/10/24 21:35:27;;;;;;;9.18;8.18;;;;;;;10.11;64.24;100751.31;10170452;29;20397;-63
2021/10/24 21:40:29;;;;;;;8.60;7.20;;;;;;;10.13;63.58;100747.56;10166256;29;20052;-62
2021/10/24 21:45:31;;;;;;;7.95;7.15;;;;;;;10.08;63.98;100747.03;10169936;29;20753;-63
2021/10/24 21:50:33;;;;;;;8.57;6.93;;;;;;;10.02;64.48;100753.63;10169469;29;20114;-62
2021/10/24 21:55:34;;;;;;;7.88;7.07;;;;;;;9.96;64.49;100754.06;10169736;29;20139;-62
2021/10/24 22:00:39;;;;;;;8.02;6.63;;;;;;;9.86;64.90;100748.56;10175872;29;20052;-62
2021/10/24 22:05:40;;;;;;;9.00;6.80;;;;;;;9.89;65.45;100744.81;10170233;29;20055;-63
2021/10/24 22:10:43;;;;;;;8.95;7.60;;;;;;;9.89;64.87;100743.03;10175293;29;20052;-62
2021/10/24 22:15:44;;;;;;;9.50;7.78;;;;;;;9.71;65.72;100741.63;10169496;29;20135;-62
2021/10/24 22:20:46;;;;;;;9.00;8.10;;;;;;;9.59;65.48;100745.13;10174210;29;20059;-65
2021/10/24 22:25:48;;;;;;;9.63;8.60;;;;;;;9.48;65.59;100744.06;10178885;29;20055;-62
2021/10/24 22:30:50;;;;;;;8.93;7.95;;;;;;;9.38;66.01;100743.84;10170933;29;20071;-62
2021/10/24 22:35:52;;;;;;;8.80;7.90;;;;;;;9.40;66.16;100751.72;10173665;29;20056;-63
2021/10/24 22:40:53;;;;;;;10.02;8.10;;;;;;;9.35;66.01;100748.50;10171614;29;20088;-64
2021/10/24 22:45:55;;;;;;;10.40;8.25;;;;;;;9.31;66.26;100752.34;10179248;29;20071;-63
2021/10/24 22:50:57;;;;;;;9.15;8.25;;;;;;;9.29;66.33;100757.75;10174696;29;20421;-62
2021/10/24 22:55:59;;;;;;;8.45;7.55;;;;;;;9.19;67.14;100757.50;10175482;29;20501;-62
2021/10/24 23:01:01;;;;;;;8.30;7.57;;;;;;;9.16;67.95;100749.75;10154886;29;20043;-63
2021/10/24 23:06:03;;;;;;;7.68;6.93;;;;;;;9.16;67.13;100749.75;10178061;29;20126;-63
2021/10/24 23:11:04;;;;;;;8.38;7.57;;;;;;;9.18;67.42;100753.13;10171779;29;20075;-62
2021/10/24 23:16:06;;;;;;;8.43;7.13;;;;;;;9.18;67.41;100752.28;10185005;29;20118;-63
2021/10/24 23:21:08;;;;;;;7.45;6.68;;;;;;;9.11;67.54;100757.19;10181416;29;20139;-64
2021/10/24 23:26:09;;;;;;;11.00;7.30;;;;;;;9.08;68.12;100762.66;10176996;29;20079;-62
2021/10/24 23:31:11;;;;;;;9.05;8.13;;;;;;;9.05;67.41;100759.38;10171782;29;20107;-63
2021/10/24 23:36:13;;;;;;;9.10;8.20;;;;;;;8.98;67.60;100759.78;10173883;29;20059;-63